Time;durP1;ratioP1;P1;durP2;ratioP2;P2;SDS_P1;SDS_P2;PMS_P1;PMS_P2;Temp;Humidity;BMP_temperature;BMP_pressure;BME280_temperature;BME280_humidity;BME280_pressure;Samples;Min_cycle;Max_cycle;Signal;HPM_P1;HPM_P2
2022/03/19 00:00:17;;;;;;;;;;;;;;;3.32;100.00;97835.31;1030864;28;20415;-68
2022/03/19 00:00:47;;;;;;;;;;;;;;;3.31;100.00;97838.84;1031136;28;19918;-69
2022/03/19 00:01:18;;;;;;;;;;;;;;;3.31;100.00;97834.47;1027253;28;19922;-68
2022/03/19 00:01:49;;;;;;;;;;;;;;;3.34;100.00;97841.13;1034210;28;19926;-68
2022/03/19 00:02:19;;;;;;;;;;;;;;;3.30;100.00;97840.63;1035083;28;20000;-68
2022/03/19 00:02:50;;;;;;;;;;;;;;;3.27;100.00;97842.75;1031157;28;20542;-68
2022/03/19 00:03:21;;;;;;;;;;;;;;;3.27;100.00;97832.38;1039176;28;20295;-68
2022/03/19 00:03:51;;;;;;;;;;;;;;;3.25;100.00;97836.91;1038219;28;19921;-69
2022/03/19 00:04:21;;;;;;;;;;;;;;;3.23;100.00;97836.28;1039250;28;19964;-69
2022/03/19 00:04:53;;;;;;;;;;;;;;;3.18;100.00;97828.16;1039007;28;20497;-69
2022/03/19 00:05:24;;;;;;;;;;;;;;;3.20;100.00;97836.59;1039012;28;19917;-68
2022/03/19 00:05:54;;;;;;;;;;;;;;;3.18;100.00;97833.34;1039077;28;19952;-68
2022/03/19 00:06:24;;;;;;;;;;;;;;;3.20;100.00;97831.41;1038636;28;19972;-68
2022/03/19 00:06:54;;;;;;;;;;;;;;;3.17;100.00;97834.31;1037623;28;19917;-68
2022/03/19 00:07:27;;;;;;;;;;;;;;;3.21;100.00;97835.63;1039537;28;19952;-69
2022/03/19 00:07:57;;;;;;;;;;;;;;;3.16;100.00;97837.91;1039123;28;19917;-69
2022/03/19 00:08:28;;;;;;;;;;;;;;;3.15;100.00;97833.66;1039345;28;20314;-69
2022/03/19 00:08:58;;;;;;;;;;;;;;;3.16;100.00;97840.50;1042793;28;20035;-69
2022/03/19 00:09:29;;;;;;;;;;;;;;;3.13;100.00;97843.41;1039046;28;19917;-69
2022/03/19 00:09:59;;;;;;;;;;;;;;;3.13;100.00;97836.44;1035990;28;19917;-68
2022/03/19 00:10:29;;;;;;;;;;;;;;;3.11;100.00;97838.38;1030868;28;20418;-70
2022/03/19 00:11:00;;;;;;;;;;;;;;;3.11;100.00;97837.56;1030571;28;19928;-67
2022/03/19 00:11:30;;;;;;;;;;;;;;;3.11;100.00;97837.56;1031450;28;20477;-69
2022/03/19 00:12:01;;;;;;;;;;;;;;;3.09;100.00;97842.94;1031278;28;19917;-69
2022/03/19 00:12:31;;;;;;;;;;;;;;;3.07;100.00;97837.91;1039451;28;19920;-69
2022/03/19 00:13:04;;;;;;;;;;;;;;;3.06;100.00;97841.47;1039691;28;20552;-68
2022/03/19 00:13:35;;;;;;;;;;;;;;;3.07;100.00;97839.69;1043403;28;19913;-68
2022/03/19 00:14:05;;;;;;;;;;;;;;;3.07;100.00;97840.50;1039824;28;19917;-69
2022/03/19 00:14:35;;;;;;;;;;;;;;;3.07;100.00;97839.69;1039179;28;19951;-69
2022/03/19 00:15:06;;;;;;;;;;;;;;;3.07;100.00;97837.91;1039357;28;19913;-69
2022/03/19 00:15:37;;;;;;;;;;;;;;;3.04;100.00;97840.00;1039153;28;19917;-69
2022/03/19 00:16:07;;;;;;;;;;;;;;;3.02;100.00;97840.19;1039077;28;20351;-69
2022/03/19 00:16:38;;;;;;;;;;;;;;;3.04;100.00;97843.41;1039757;28;19917;-69
2022/03/19 00:17:10;;;;;;;;;;;;;;;3.03;100.00;97836.59;1035236;28;19921;-69
2022/03/19 00:17:40;;;;;;;;;;;;;;;3.03;100.00;97841.78;1035505;28;19956;-69
2022/03/19 00:18:11;;;;;;;;;;;;;;;3.02;100.00;97834.19;1039696;28;19951;-68
2022/03/19 00:18:41;;;;;;;;;;;;;;;3.03;100.00;97836.59;1039446;28;20403;-69
2022/03/19 00:19:11;;;;;;;;;;;;;;;3.02;100.00;97837.59;1042631;28;19921;-69
2022/03/19 00:19:41;;;;;;;;;;;;;;;3.01;100.00;97835.94;1043745;28;19952;-69
2022/03/19 00:20:12;;;;;;;;;;;;;;;2.99;100.00;97830.13;1039205;28;20710;-69
2022/03/19 00:20:42;;;;;;;;;;;;;;;2.99;100.00;97829.31;1035088;28;19924;-70
2022/03/19 00:21:12;;;;;;;;;;;;;;;2.97;100.00;97836.44;1027197;28;19918;-70
2022/03/19 00:21:43;;;;;;;;;;;;;;;2.99;100.00;97830.13;1023128;29;19922;-71
2022/03/19 00:22:13;;;;;;;;;;;;;;;2.95;100.00;97831.44;1027367;28;20273;-69
2022/03/19 00:22:43;;;;;;;;;;;;;;;2.99;100.00;97829.31;1030722;28;19918;-69
2022/03/19 00:23:15;;;;;;;;;;;;;;;3.01;100.00;97833.34;1035120;28;19913;-69
2022/03/19 00:23:45;;;;;;;;;;;;;;;2.98;100.00;97828.50;1031198;28;19913;-69
2022/03/19 00:24:16;;;;;;;;;;;;;;;2.97;100.00;97826.88;1032241;28;19917;-70
2022/03/19 00:24:46;;;;;;;;;;;;;;;3.02;100.00;97829.81;1027195;28;20419;-69
2022/03/19 00:25:16;;;;;;;;;;;;;;;3.03;100.00;97826.22;1031262;28;20676;-69
2022/03/19 00:25:47;;;;;;;;;;;;;;;3.05;100.00;97833.84;1035099;28;19976;-69
2022/03/19 00:26:18;;;;;;;;;;;;;;;3.03;100.00;97828.03;1033984;28;19918;-68
2022/03/19 00:26:48;;;;;;;;;;;;;;;3.04;100.00;97833.03;1035169;28;19921;-69
2022/03/19 00:27:19;;;;;;;;;;;;;;;3.02;100.00;97837.59;1039306;28;19921;-69
2022/03/19 00:27:49;;;;;;;;;;;;;;;3.01;100.00;97830.75;1039357;28;19947;-69
2022/03/19 00:28:19;;;;;;;;;;;;;;;3.05;100.00;97833.84;1039150;28;19947;-68
2022/03/19 00:28:50;;;;;;;;;;;;;;;3.05;100.00;97832.06;1039389;28;19984;-68
2022/03/19 00:29:20;;;;;;;;;;;;;;;3.04;100.00;97827.84;1038266;28;19949;-69
2022/03/19 00:29:50;;;;;;;;;;;;;;;3.03;100.00;97828.81;1039078;28;19917;-69
2022/03/19 00:30:20;;;;;;;;;;;;;;;3.04;100.00;97830.44;1035421;28;20423;-69
2022/03/19 00:30:51;;;;;;;;;;;;;;;3.03;100.00;97828.03;1039251;28;19928;-68
2022/03/19 00:31:23;;;;;;;;;;;;;;;3.00;100.00;97823.97;1034786;28;20008;-68
2022/03/19 00:31:54;;;;;;;;;;;;;;;2.98;100.00;97817.31;1035635;28;20427;-69
2022/03/19 00:32:24;;;;;;;;;;;;;;;2.98;100.00;97823.31;1035082;28;19917;-69
2022/03/19 00:32:55;;;;;;;;;;;;;;;2.98;100.00;97825.91;1035099;28;19956;-68
2022/03/19 00:33:25;;;;;;;;;;;;;;;2.95;100.00;97817.63;1031130;28;20004;-73
2022/03/19 00:33:56;;;;;;;;;;;;;;;2.93;100.00;97817.81;1031123;28;19910;-69
2022/03/19 00:34:26;;;;;;;;;;;;;;;2.94;100.00;97819.41;1031114;28;20077;-69
2022/03/19 00:34:57;;;;;;;;;;;;;;;2.93;100.00;97825.59;1031091;28;20022;-69
2022/03/19 00:35:27;;;;;;;;;;;;;;;2.92;100.00;97818.78;1035018;28;19909;-68
2022/03/19 00:35:57;;;;;;;;;;;;;;;2.89;100.00;97821.69;1039291;28;19916;-69
2022/03/19 00:36:28;;;;;;;;;;;;;;;2.87;100.00;97821.03;1034933;28;19910;-69
2022/03/19 00:36:58;;;;;;;;;;;;;;;2.90;100.00;97815.53;1035094;28;19957;-69
2022/03/19 00:37:28;;;;;;;;;;;;;;;2.92;100.00;97815.38;1030940;28;19936;-69
2022/03/19 00:37:59;;;;;;;;;;;;;;;2.89;100.00;97824.28;1026653;28;19918;-69
2022/03/19 00:38:29;;;;;;;;;;;;;;;2.89;100.00;97816.53;1027308;28;20700;-68
2022/03/19 00:38:59;;;;;;;;;;;;;;;2.88;100.00;97811.47;1034541;28;19910;-68
2022/03/19 00:39:30;;;;;;;;;;;;;;;2.88;100.00;97817.47;1038967;28;19913;-69
2022/03/19 00:40:00;;;;;;;;;;;;;;;2.89;100.00;97818.31;1039182;28;19913;-69
2022/03/19 00:40:32;;;;;;;;;;;;;;;2.88;100.00;97817.47;1035087;28;19999;-69
2022/03/19 00:41:03;;;;;;;;;;;;;;;2.86;100.00;97809.06;1031008;28;19909;-68
2022/03/19 00:41:33;;;;;;;;;;;;;;;2.83;100.00;97812.78;1031012;28;19921;-68
2022/03/19 00:42:03;;;;;;;;;;;;;;;2.85;100.00;97807.44;1029784;28;19918;-68
2022/03/19 00:42:34;;;;;;;;;;;;;;;2.89;100.00;97816.53;1035449;28;19928;-69
2022/03/19 00:43:04;;;;;;;;;;;;;;;2.85;100.00;97812.63;1038927;28;19974;-69
2022/03/19 00:43:36;;;;;;;;;;;;;;;2.87;100.00;97815.84;1030875;28;20330;-69
2022/03/19 00:44:08;;;;;;;;;;;;;;;2.83;100.00;97817.16;1031458;28;20005;-69
2022/03/19 00:44:42;;;;;;;;;;;;;;;2.82;100.00;97815.56;1030627;28;20406;-69
2022/03/19 00:45:12;;;;;;;;;;;;;;;2.80;100.00;97814.88;1032932;28;19921;-69
2022/03/19 00:45:46;;;;;;;;;;;;;;;2.80;100.00;97814.88;1033312;28;20126;-69
2022/03/19 00:46:19;;;;;;;;;;;;;;;2.80;100.00;97815.69;1034871;28;19921;-68
2022/03/19 00:46:49;;;;;;;;;;;;;;;2.79;100.00;97814.09;1035049;28;19981;-69
2022/03/19 00:47:22;;;;;;;;;;;;;;;2.78;100.00;97814.22;1032242;28;20398;-69
2022/03/19 00:47:52;;;;;;;;;;;;;;;2.78;100.00;97815.06;1034930;28;19918;-69
2022/03/19 00:48:23;;;;;;;;;;;;;;;2.78;100.00;97822.00;1031480;28;20025;-69
2022/03/19 00:48:53;;;;;;;;;;;;;;;2.77;100.00;97826.38;1035324;28;19929;-69
2022/03/19 00:49:23;;;;;;;;;;;;;;;2.75;100.00;97819.72;1038658;28;19916;-69
2022/03/19 00:49:54;;;;;;;;;;;;;;;2.76;100.00;97816.19;1034615;28;19917;-68
2022/03/19 00:50:24;;;;;;;;;;;;;;;2.74;100.00;97818.94;1035098;28;19910;-69
2022/03/19 00:50:55;;;;;;;;;;;;;;;2.74;100.00;97825.91;1035152;28;19921;-69
2022/03/19 00:51:28;;;;;;;;;;;;;;;2.74;100.00;97815.53;1035090;28;19941;-69
2022/03/19 00:51:59;;;;;;;;;;;;;;;2.71;100.00;97821.84;1039012;28;19913;-68
2022/03/19 00:52:29;;;;;;;;;;;;;;;2.72;100.00;97812.31;1039340;28;20536;-69
2022/03/19 00:52:59;;;;;;;;;;;;;;;2.72;100.00;97817.50;1035048;28;19952;-69
2022/03/19 00:53:30;;;;;;;;;;;;;;;2.72;100.00;97823.47;1035019;28;19917;-69
2022/03/19 00:54:03;;;;;;;;;;;;;;;2.69;100.00;97810.84;1030765;28;19949;-69
2022/03/19 00:54:33;;;;;;;;;;;;;;;2.66;100.00;97813.75;1031353;28;19924;-69
2022/03/19 00:55:04;;;;;;;;;;;;;;;2.67;100.00;97817.94;1030844;28;19917;-69
2022/03/19 00:55:34;;;;;;;;;;;;;;;2.66;100.00;97812.94;1027326;28;19920;-69
2022/03/19 00:56:07;;;;;;;;;;;;;;;2.66;100.00;97815.53;1030762;28;19980;-69
2022/03/19 00:56:37;;;;;;;;;;;;;;;2.67;100.00;97811.97;1027280;28;19922;-69
2022/03/19 00:57:08;;;;;;;;;;;;;;;2.64;100.00;97815.69;1031276;28;20008;-69
2022/03/19 00:57:39;;;;;;;;;;;;;;;2.64;100.00;97812.28;1035443;28;19918;-68
2022/03/19 00:58:09;;;;;;;;;;;;;;;2.64;100.00;97813.09;1030730;28;19938;-69
2022/03/19 00:58:39;;;;;;;;;;;;;;;2.61;100.00;97810.81;1030857;28;19910;-69
2022/03/19 00:59:10;;;;;;;;;;;;;;;2.58;100.00;97811.97;1025662;28;19950;-66
2022/03/19 00:59:40;;;;;;;;;;;;;;;2.59;100.00;97808.41;1026019;28;19940;-69
2022/03/19 01:00:11;;;;;;;;;;;;;;;2.57;100.00;97810.31;1034728;28;20665;-69
2022/03/19 01:00:41;;;;;;;;;;;;;;;2.58;100.00;97809.38;1039393;28;19966;-69
2022/03/19 01:01:12;;;;;;;;;;;;;;;2.59;100.00;97818.75;1043229;28;19932;-69
2022/03/19 01:01:42;;;;;;;;;;;;;;;2.57;100.00;97817.28;1043305;28;19916;-69
2022/03/19 01:02:12;;;;;;;;;;;;;;;2.58;100.00;97811.97;1043188;28;19913;-68
2022/03/19 01:02:43;;;;;;;;;;;;;;;2.59;100.00;97813.59;1043527;28;19917;-69
2022/03/19 01:03:15;;;;;;;;;;;;;;;2.59;100.00;97812.78;1039034;28;19967;-68
2022/03/19 01:03:45;;;;;;;;;;;;;;;2.58;100.00;97808.53;1030955;28;19950;-68
2022/03/19 01:04:16;;;;;;;;;;;;;;;2.60;100.00;97812.59;1026736;28;20515;-69
2022/03/19 01:04:46;;;;;;;;;;;;;;;2.58;100.00;97811.13;1027296;28;19946;-68
2022/03/19 01:05:17;;;;;;;;;;;;;;;2.56;100.00;97816.50;1026817;28;19914;-68
2022/03/19 01:05:47;;;;;;;;;;;;;;;2.57;100.00;97815.50;1035102;28;20377;-68
2022/03/19 01:06:17;;;;;;;;;;;;;;;2.39;100.00;97781.19;1034931;28;19918;-69
2022/03/19 01:06:48;;;;;;;;;;;;;;;2.57;100.00;97809.53;1030714;28;19920;-67
2022/03/19 01:07:18;;;;;;;;;;;;;;;2.54;100.00;97813.25;1035271;28;19924;-69
2022/03/19 01:07:53;;;;;;;;;;;;;;;2.54;100.00;97813.25;1030822;28;19972;-68
2022/03/19 01:08:23;;;;;;;;;;;;;;;2.51;100.00;97808.38;1031436;28;19921;-69
2022/03/19 01:08:53;;;;;;;;;;;;;;;2.52;100.00;97807.44;1034873;28;19964;-70
2022/03/19 01:09:24;;;;;;;;;;;;;;;2.55;100.00;97812.28;1033794;28;19978;-69
2022/03/19 01:09:54;;;;;;;;;;;;;;;2.58;100.00;97811.13;1031080;28;19941;-69
2022/03/19 01:10:28;;;;;;;;;;;;;;;2.56;100.00;97811.31;1026715;28;20407;-68
2022/03/19 01:10:58;;;;;;;;;;;;;;;2.57;100.00;97810.31;1034739;28;20460;-69
2022/03/19 01:11:28;;;;;;;;;;;;;;;2.56;100.00;97808.72;1031185;28;19949;-68
2022/03/19 01:11:59;;;;;;;;;;;;;;;2.53;100.00;97803.03;1031551;28;19910;-69
2022/03/19 01:12:29;;;;;;;;;;;;;;;2.52;100.00;97806.63;1031271;28;19965;-69
2022/03/19 01:13:03;;;;;;;;;;;;;;;2.49;100.00;97809.53;1029585;28;20532;-69
2022/03/19 01:13:34;;;;;;;;;;;;;;;2.47;100.00;97806.28;1034925;28;19918;-69
2022/03/19 01:14:04;;;;;;;;;;;;;;;2.48;100.00;97811.31;1035153;28;19921;-71
2022/03/19 01:14:34;;;;;;;;;;;;;;;2.48;100.00;97810.47;1027427;28;19910;-69
2022/03/19 01:15:05;;;;;;;;;;;;;;;2.44;100.00;97804.81;1030857;28;20709;-68
2022/03/19 01:15:35;;;;;;;;;;;;;;;2.45;100.00;97806.44;1031111;28;20549;-67
2022/03/19 01:16:05;;;;;;;;;;;;;;;2.46;100.00;97808.06;1034956;28;19976;-69
2022/03/19 01:16:36;;;;;;;;;;;;;;;2.44;100.00;97809.97;1030941;28;19928;-69
2022/03/19 01:17:06;;;;;;;;;;;;;;;2.41;100.00;97799.94;1030639;28;19918;-68
2022/03/19 01:17:37;;;;;;;;;;;;;;;2.42;100.00;97800.78;1030838;28;19940;-69
2022/03/19 01:18:10;;;;;;;;;;;;;;;2.44;100.00;97798.81;1026773;28;20021;-68
2022/03/19 01:18:40;;;;;;;;;;;;;;;2.44;100.00;97798.81;1027258;28;20355;-69
2022/03/19 01:19:11;;;;;;;;;;;;;;;2.45;100.00;97805.59;1029948;28;19918;-68
2022/03/19 01:20:01;;;;;;;;;;;;;;;2.43;100.00;97803.19;1031067;28;19925;-68
2022/03/19 01:20:31;;;;;;;;;;;;;;;2.42;100.00;97804.16;1029438;28;20006;-69
2022/03/19 01:21:01;;;;;;;;;;;;;;;2.42;100.00;97806.75;1029093;28;19918;-69
2022/03/19 01:21:32;;;;;;;;;;;;;;;2.38;100.00;97800.25;1025586;28;19922;-69
2022/03/19 01:22:02;;;;;;;;;;;;;;;2.37;100.00;97803.81;1022908;29;19969;-69
2022/03/19 01:22:33;;;;;;;;;;;;;;;2.35;100.00;97796.22;1022876;28;19914;-69
2022/03/19 01:23:04;;;;;;;;;;;;;;;2.33;100.00;97802.53;1022936;28;20392;-69
2022/03/19 01:23:34;;;;;;;;;;;;;;;2.32;100.00;97795.75;1023086;28;20741;-68
2022/03/19 01:24:05;;;;;;;;;;;;;;;2.32;100.00;97800.91;1023257;28;19923;-68
2022/03/19 01:24:35;;;;;;;;;;;;;;;2.32;100.00;97801.72;1034811;28;19923;-69
2022/03/19 01:25:06;;;;;;;;;;;;;;;2.34;100.00;97804.13;1030853;28;19960;-69
2022/03/19 01:25:36;;;;;;;;;;;;;;;2.32;100.00;97795.75;1030804;28;19929;-69
2022/03/19 01:26:06;;;;;;;;;;;;;;;2.34;100.00;97796.38;1026744;28;19969;-67
2022/03/19 01:26:37;;;;;;;;;;;;;;;2.30;100.00;97801.06;1026989;28;19918;-68
2022/03/19 01:27:07;;;;;;;;;;;;;;;2.32;100.00;97795.75;1026819;28;19969;-69
2022/03/19 01:27:37;;;;;;;;;;;;;;;2.30;100.00;97792.47;1022608;28;19928;-68
2022/03/19 01:28:08;;;;;;;;;;;;;;;2.25;100.00;97799.94;1022885;28;19919;-69
2022/03/19 01:28:38;;;;;;;;;;;;;;;2.26;100.00;97798.97;1026157;28;20019;-69
2022/03/19 01:29:09;;;;;;;;;;;;;;;2.22;100.00;97795.88;1030536;28;19992;-69
2022/03/19 01:29:39;;;;;;;;;;;;;;;2.22;100.00;97800.25;1038629;28;19921;-68
2022/03/19 01:30:13;;;;;;;;;;;;;;;2.24;100.00;97793.91;1038923;28;20021;-68
2022/03/19 01:30:43;;;;;;;;;;;;;;;2.25;100.00;97797.34;1035161;28;20462;-69
2022/03/19 01:31:14;;;;;;;;;;;;;;;2.22;100.00;97797.66;1030530;28;19918;-69
2022/03/19 01:31:44;;;;;;;;;;;;;;;2.23;100.00;97799.28;1030822;28;19922;-70
2022/03/19 01:32:14;;;;;;;;;;;;;;;2.24;100.00;97795.69;1030682;28;19929;-69
2022/03/19 01:32:46;;;;;;;;;;;;;;;2.20;100.00;97791.81;1026475;28;19934;-68
2022/03/19 01:33:16;;;;;;;;;;;;;;;2.18;100.00;97792.00;1026966;28;19961;-69
2022/03/19 01:33:47;;;;;;;;;;;;;;;2.15;100.00;97796.66;1030771;28;20272;-69
2022/03/19 01:34:17;;;;;;;;;;;;;;;2.15;100.00;97800.06;1034731;28;19921;-69
2022/03/19 01:34:47;;;;;;;;;;;;;;;2.15;100.00;97794.06;1034796;28;19917;-68
2022/03/19 01:35:18;;;;;;;;;;;;;;;2.12;100.00;97787.44;1035469;28;19921;-69
2022/03/19 01:35:48;;;;;;;;;;;;;;;2.15;100.00;97794.06;1031534;28;20020;-69
2022/03/19 01:36:19;;;;;;;;;;;;;;;2.11;100.00;97791.81;1022953;28;20479;-69
2022/03/19 01:36:49;;;;;;;;;;;;;;;2.11;100.00;97791.81;1023220;29;20442;-69
2022/03/19 01:37:20;;;;;;;;;;;;;;;2.13;100.00;97789.03;1023124;29;19975;-69
2022/03/19 01:37:50;;;;;;;;;;;;;;;2.12;100.00;97790.03;1026725;28;19922;-69
2022/03/19 01:38:20;;;;;;;;;;;;;;;2.13;100.00;97786.47;1026978;28;19918;-69
2022/03/19 01:38:51;;;;;;;;;;;;;;;2.12;100.00;97790.84;1027122;28;19945;-70
2022/03/19 01:39:21;;;;;;;;;;;;;;;2.11;100.00;97784.03;1034164;28;19926;-69
2022/03/19 01:39:54;;;;;;;;;;;;;;;2.09;100.00;97785.97;1034539;28;19928;-68
2022/03/19 01:40:24;;;;;;;;;;;;;;;2.10;100.00;97781.59;1035111;28;20403;-68
2022/03/19 01:40:54;;;;;;;;;;;;;;;2.09;100.00;97785.97;1038920;28;19914;-68
2022/03/19 01:41:24;;;;;;;;;;;;;;;2.08;100.00;97781.75;1030777;28;19918;-69
2022/03/19 01:41:58;;;;;;;;;;;;;;;2.08;100.00;97792.13;1030747;28;19953;-68
2022/03/19 01:42:29;;;;;;;;;;;;;;;2.06;100.00;97778.50;1034739;28;20052;-68
2022/03/19 01:43:00;;;;;;;;;;;;;;;2.07;100.00;97782.72;1027447;28;19918;-68
2022/03/19 01:43:30;;;;;;;;;;;;;;;2.05;100.00;97784.66;1030581;28;19913;-67
2022/03/19 01:44:00;;;;;;;;;;;;;;;2.05;100.00;97784.66;1030147;28;19985;-68
2022/03/19 01:44:31;;;;;;;;;;;;;;;2.07;100.00;97787.09;1026169;28;20008;-68
2022/03/19 01:45:01;;;;;;;;;;;;;;;2.11;100.00;97791.81;1030658;28;20058;-68
2022/03/19 01:45:32;;;;;;;;;;;;;;;2.07;100.00;97787.88;1025152;28;19922;-67
2022/03/19 01:46:02;;;;;;;;;;;;;;;2.06;100.00;97783.69;1034486;28;19928;-68
2022/03/19 01:46:51;;;;;;;;;;;;;;;2.05;100.00;97789.84;1035078;28;19913;-68
2022/03/19 01:47:21;;;;;;;;;;;;;;;2.05;100.00;97781.28;1036548;28;19940;-69
2022/03/19 01:47:52;;;;;;;;;;;;;;;2.06;100.00;97786.28;1032984;28;20454;-68
2022/03/19 01:48:25;;;;;;;;;;;;;;;2.07;100.00;97787.88;1038324;28;19921;-70
2022/03/19 01:48:55;;;;;;;;;;;;;;;2.07;100.00;97787.09;1038249;28;19917;-67
2022/03/19 01:49:25;;;;;;;;;;;;;;;2.06;100.00;97786.28;1035117;28;20406;-68
2022/03/19 01:49:56;;;;;;;;;;;;;;;2.06;100.00;97786.28;1038694;28;19917;-68
2022/03/19 01:50:26;;;;;;;;;;;;;;;2.07;100.00;97785.31;1034383;28;20029;-68
2022/03/19 01:50:57;;;;;;;;;;;;;;;2.08;100.00;97784.34;1030633;28;19953;-69
2022/03/19 01:51:27;;;;;;;;;;;;;;;2.10;100.00;97787.56;1030548;28;19964;-69
2022/03/19 01:51:57;;;;;;;;;;;;;;;2.11;100.00;97789.22;1030616;28;20702;-69
2022/03/19 01:52:31;;;;;;;;;;;;;;;2.18;100.00;97791.16;1030545;28;20011;-68
2022/03/19 01:53:01;;;;;;;;;;;;;;;2.12;100.00;97788.25;1035177;28;19924;-69
2022/03/19 01:53:31;;;;;;;;;;;;;;;2.13;100.00;97781.28;1039674;28;20367;-70
2022/03/19 01:54:02;;;;;;;;;;;;;;;2.10;100.00;97782.41;1035544;28;19953;-69
2022/03/19 01:54:32;;;;;;;;;;;;;;;2.12;100.00;97780.47;1029965;28;20377;-69
2022/03/19 01:55:03;;;;;;;;;;;;;;;2.11;100.00;97788.38;1035326;28;20478;-69
2022/03/19 01:55:33;;;;;;;;;;;;;;;2.12;100.00;97782.25;1035411;28;19945;-69
2022/03/19 01:56:04;;;;;;;;;;;;;;;2.11;100.00;97783.22;1035615;28;20322;-69
2022/03/19 01:56:34;;;;;;;;;;;;;;;2.10;100.00;97779.81;1035087;28;20000;-68
2022/03/19 01:57:04;;;;;;;;;;;;;;;2.06;100.00;97781.09;1032169;28;19910;-68
2022/03/19 01:57:37;;;;;;;;;;;;;;;2.14;100.00;97777.72;1032013;28;19906;-69
2022/03/19 01:58:07;;;;;;;;;;;;;;;2.12;100.00;97782.25;1032308;28;19917;-68
2022/03/19 01:58:40;;;;;;;;;;;;;;;2.07;100.00;97777.53;1032157;28;19928;-69
2022/03/19 01:59:10;;;;;;;;;;;;;;;2.09;100.00;97780.78;1032339;28;19932;-67
2022/03/19 01:59:41;;;;;;;;;;;;;;;2.10;100.00;97777.22;1032492;28;19973;-68
2022/03/19 02:00:12;;;;;;;;;;;;;;;2.05;100.00;97779.50;1032758;28;19914;-68
2022/03/19 02:00:42;;;;;;;;;;;;;;;2.04;100.00;97780.44;1032577;28;20376;-69
2022/03/19 02:01:13;;;;;;;;;;;;;;;2.05;100.00;97779.50;1036498;28;19914;-69
2022/03/19 02:01:43;;;;;;;;;;;;;;;2.07;100.00;97780.13;1039535;28;20394;-69
2022/03/19 02:02:16;;;;;;;;;;;;;;;2.05;100.00;97776.91;1040488;28;20414;-68
2022/03/19 02:02:47;;;;;;;;;;;;;;;2.09;100.00;97780.78;1040390;28;19955;-69
2022/03/19 02:03:17;;;;;;;;;;;;;;;2.07;100.00;97780.13;1040580;28;19932;-69
2022/03/19 02:03:47;;;;;;;;;;;;;;;2.06;100.00;97781.09;1036584;28;19913;-68
2022/03/19 02:04:18;;;;;;;;;;;;;;;2.11;100.00;97783.22;1031954;28;19920;-69
2022/03/19 02:04:48;;;;;;;;;;;;;;;2.09;100.00;97780.78;1033163;28;19935;-69
2022/03/19 02:05:20;;;;;;;;;;;;;;;2.07;100.00;97777.53;1032130;28;20425;-69
2022/03/19 02:05:50;;;;;;;;;;;;;;;2.04;100.00;97777.03;1032488;28;20503;-68
2022/03/19 02:06:23;;;;;;;;;;;;;;;2.01;100.00;97777.34;1032727;28;19920;-68
2022/03/19 02:06:54;;;;;;;;;;;;;;;1.97;100.00;97776.84;1032081;28;19914;-69
2022/03/19 02:07:24;;;;;;;;;;;;;;;1.95;100.00;97776.22;1032985;28;20412;-69
2022/03/19 02:07:54;;;;;;;;;;;;;;;1.98;100.00;97772.50;1036422;28;19963;-69
2022/03/19 02:08:25;;;;;;;;;;;;;;;1.95;100.00;97768.47;1032487;28;19917;-69
2022/03/19 02:08:55;;;;;;;;;;;;;;;1.92;100.00;97773.94;1031728;28;19915;-66
2022/03/19 02:09:25;;;;;;;;;;;;;;;1.91;100.00;97764.53;1036352;28;20294;-69
2022/03/19 02:09:59;;;;;;;;;;;;;;;1.91;100.00;97769.72;1032497;28;19918;-69
2022/03/19 02:10:29;;;;;;;;;;;;;;;1.91;100.00;97767.13;1036266;28;19913;-69
2022/03/19 02:11:00;;;;;;;;;;;;;;;1.87;100.00;97765.84;1032091;28;20339;-68
2022/03/19 02:11:34;;;;;;;;;;;;;;;1.86;100.00;97753.88;1024787;28;19910;-68
2022/03/19 02:12:06;;;;;;;;;;;;;;;1.86;100.00;97761.63;1020896;29;19918;-68
2022/03/19 02:12:36;;;;;;;;;;;;;;;1.89;100.00;97759.53;1023917;29;20661;-69
2022/03/19 02:13:07;;;;;;;;;;;;;;;1.92;100.00;97767.97;1025606;28;19918;-68
2022/03/19 02:13:37;;;;;;;;;;;;;;;1.89;100.00;97756.13;1032665;28;19925;-68
2022/03/19 02:14:07;;;;;;;;;;;;;;;1.92;100.00;97755.03;1036560;28;19945;-69
2022/03/19 02:14:38;;;;;;;;;;;;;;;1.91;100.00;97756.78;1032233;28;19918;-69
2022/03/19 02:15:09;;;;;;;;;;;;;;;1.87;100.00;97752.88;1027728;28;19925;-68
2022/03/19 02:15:39;;;;;;;;;;;;;;;1.84;100.00;97748.81;1028424;28;20380;-68
2022/03/19 02:16:09;;;;;;;;;;;;;;;1.68;100.00;97722.09;1032838;28;20064;-69
2022/03/19 02:16:40;;;;;;;;;;;;;;;1.85;100.00;97757.44;1028694;28;19924;-68
2022/03/19 02:17:10;;;;;;;;;;;;;;;1.84;100.00;97753.19;1032648;28;19934;-67
2022/03/19 02:17:40;;;;;;;;;;;;;;;1.81;100.00;97745.75;1036278;28;19918;-69
2022/03/19 02:18:13;;;;;;;;;;;;;;;1.80;100.00;97750.13;1036503;28;19921;-68
2022/03/19 02:18:44;;;;;;;;;;;;;;;1.75;100.00;97747.19;1044719;28;19920;-68
2022/03/19 02:19:16;;;;;;;;;;;;;;;1.76;100.00;97745.41;1039420;28;20877;-68
2022/03/19 02:19:50;;;;;;;;;;;;;;;1.74;100.00;97744.75;1036238;28;20279;-69
2022/03/19 02:20:23;;;;;;;;;;;;;;;1.71;100.00;97747.66;1032259;28;19914;-69
2022/03/19 02:20:58;;;;;;;;;;;;;;;1.69;100.00;97745.25;1029340;28;20398;-68
2022/03/19 02:21:37;;;;;;;;;;;;;;;1.67;100.00;97743.75;1029505;28;19914;-69
2022/03/19 02:22:08;;;;;;;;;;;;;;;1.70;100.00;97740.88;1034522;28;20459;-68
2022/03/19 02:22:38;;;;;;;;;;;;;;;1.70;100.00;97744.25;1036171;28;19929;-69
2022/03/19 02:25:46;;;;;;;;;;;;;;;1.64;100.00;97739.72;1036373;28;19920;-69
2022/03/19 02:26:17;;;;;;;;;;;;;;;1.62;100.00;97739.06;1033140;28;20016;-68
2022/03/19 02:26:47;;;;;;;;;;;;;;;1.61;100.00;97740.84;1038820;28;20310;-68
2022/03/19 02:27:18;;;;;;;;;;;;;;;1.60;100.00;97738.41;1036213;28;19917;-69
2022/03/19 02:27:48;;;;;;;;;;;;;;;1.56;100.00;97731.94;1036154;28;19921;-68
2022/03/19 02:28:18;;;;;;;;;;;;;;;1.57;100.00;97736.94;1040301;28;19913;-69
2022/03/19 02:28:49;;;;;;;;;;;;;;;1.54;100.00;97737.28;1036336;28;20538;-68
2022/03/19 02:29:20;;;;;;;;;;;;;;;1.56;100.00;97731.94;1035453;28;19918;-69
2022/03/19 02:29:51;;;;;;;;;;;;;;;1.53;100.00;97737.41;1036075;28;19928;-67
2022/03/19 02:30:22;;;;;;;;;;;;;;;1.52;100.00;97736.59;1028589;28;19918;-68
2022/03/19 02:30:52;;;;;;;;;;;;;;;1.54;100.00;97737.28;1027703;28;20612;-68
2022/03/19 02:31:22;;;;;;;;;;;;;;;1.53;100.00;97735.63;1024484;28;20376;-68
2022/03/19 02:31:54;;;;;;;;;;;;;;;1.53;100.00;97742.59;1028605;28;19933;-68
2022/03/19 02:32:24;;;;;;;;;;;;;;;1.50;100.00;97742.91;1036546;28;20044;-68
2022/03/19 02:32:58;;;;;;;;;;;;;;;1.51;100.00;97735.00;1040916;28;20429;-69
2022/03/19 02:33:28;;;;;;;;;;;;;;;1.51;100.00;97732.41;1036492;28;19909;-69
2022/03/19 02:33:59;;;;;;;;;;;;;;;1.52;100.00;97736.59;1036160;28;19913;-68
2022/03/19 02:34:29;;;;;;;;;;;;;;;1.49;100.00;97731.75;1036485;28;19921;-69
2022/03/19 02:35:00;;;;;;;;;;;;;;;1.48;100.00;97732.72;1034467;28;19957;-68
2022/03/19 02:35:30;;;;;;;;;;;;;;;1.50;100.00;97742.91;1038765;28;19983;-67
2022/03/19 02:36:01;;;;;;;;;;;;;;;1.52;100.00;97731.44;1040303;28;20444;-68
2022/03/19 02:36:31;;;;;;;;;;;;;;;1.51;100.00;97724.66;1032035;28;19968;-67
2022/03/19 02:37:01;;;;;;;;;;;;;;;1.51;100.00;97729.81;1033495;28;19922;-68
2022/03/19 02:37:41;;;;;;;;;;;;;;;1.52;100.00;97734.03;1034823;28;20387;-68
2022/03/19 02:38:12;;;;;;;;;;;;;;;1.49;100.00;97730.94;1030244;28;19925;-67
2022/03/19 02:38:42;;;;;;;;;;;;;;;1.46;100.00;97726.88;1031995;28;19921;-69
2022/03/19 02:39:13;;;;;;;;;;;;;;;1.46;100.00;97724.28;1032731;28;19928;-68
2022/03/19 02:39:43;;;;;;;;;;;;;;;1.41;100.00;97729.94;1031924;28;19965;-68
2022/03/19 02:40:14;;;;;;;;;;;;;;;1.44;100.00;97730.56;1036069;28;20424;-68
2022/03/19 02:40:45;;;;;;;;;;;;;;;1.43;100.00;97722.00;1034623;28;19913;-67
2022/03/19 02:41:15;;;;;;;;;;;;;;;1.42;100.00;97720.41;1034157;28;19913;-67
2022/03/19 02:41:46;;;;;;;;;;;;;;;1.42;100.00;97726.38;1034759;28;19917;-68
2022/03/19 02:42:17;;;;;;;;;;;;;;;1.43;100.00;97719.44;1033509;28;20559;-68
2022/03/19 02:42:51;;;;;;;;;;;;;;;1.47;100.00;97718.13;1032235;28;19941;-67
2022/03/19 02:43:21;;;;;;;;;;;;;;;1.49;100.00;97726.56;1034306;28;19971;-67
2022/03/19 02:43:54;;;;;;;;;;;;;;;1.49;100.00;97723.97;1035933;28;20018;-68